Ocean Tower — WDE4689 — position and weather

sailwx.info

Track history (hours):
 
Tides and Currents Weather Stations Pressure Air Temp Water Temp Dewpoint Dewpoint Depression Visibility Wind Speed Wind Dir Waves Ship Positions

Ocean Tower

Owner: Tug Ocean Tower, Tampa, FL. More information available from US FCC via Universal Licensing System and Coast Guard Vessel Documentation Center.

Last reported at 2017-Oct-31 00:32 UTC. Time now 2017-Nov-21 10:18 UTC.
Position N 34°12' W 077°57'.
Warning: this ship's position is 21 days out of date.

Length 34 m; draft 4.1 m.

Type: Tow > 200 m length. MMSI: 367356580.

Date/timePositionNaut miles runAvg speedWind from/ knotsBaromVisibWave heightAir tempDewpointWater temp
2017-Oct-31 00:32N 34°12' W 077°57'1 8.0
2017-Oct-31 00:21N 34°13' W 077°57'0 0.1
2017-Oct-31 00:00N 34°13' W 077°57'0 0.0
2017-Oct-30 23:30N 34°13' W 077°57'0 0.0
2017-Oct-30 23:00N 34°13' W 077°57'0 0.0
2017-Oct-30 22:30N 34°13' W 077°57'0 0.0
2017-Oct-30 22:00N 34°13' W 077°57'0 0.0
2017-Oct-30 21:27N 34°13' W 077°57'0 0.0
2017-Oct-30 21:00N 34°13' W 077°57'0 0.0
2017-Oct-30 20:29N 34°13' W 077°57'0 0.0
2017-Oct-30 20:00N 34°13' W 077°57'0 0.0
2017-Oct-30 19:30N 34°13' W 077°57'0 0.0
2017-Oct-30 19:00N 34°13' W 077°57'0 0.3
2017-Oct-30 18:30N 34°13' W 077°57'  
2017-Oct-27 16:41N 34°32' W 076°46'210.4
2017-Oct-27 16:30N 34°33' W 076°45'510.3
2017-Oct-27 16:00N 34°38' W 076°42'4 8.6
2017-Oct-27 15:30N 34°42' W 076°41'1 2.5
2017-Oct-27 15:00N 34°43' W 076°42'2 3.3
2017-Oct-27 14:30N 34°42' W 076°40'2 4.4
2017-Oct-27 14:00N 34°40' W 076°41'0 0.2
2017-Oct-27 13:30N 34°40' W 076°41'1 1.3
2017-Oct-27 13:01N 34°39' W 076°41'3 5.5
2017-Oct-27 12:30N 34°36' W 076°41'4 8.9
2017-Oct-27 12:00N 34°32' W 076°39'148 7.2
2017-Oct-26 15:27N 36°57' W 076°02'15 7.4
2017-Oct-26 13:26N 36°53' W 076°20'4 8.1
2017-Oct-26 13:00N 36°50' W 076°17'0 0.7
2017-Oct-26 12:30N 36°50' W 076°17'0 0.0
2017-Oct-26 12:00N 36°50' W 076°17'0 0.0
2017-Oct-26 11:30N 36°50' W 076°17'0 0.0
2017-Oct-26 11:00N 36°50' W 076°17'0 0.0
2017-Oct-26 10:31N 36°50' W 076°17'0 0.0
2017-Oct-26 10:00N 36°50' W 076°17'0 0.0
2017-Oct-26 09:30N 36°50' W 076°17'0 0.0
2017-Oct-26 09:00N 36°50' W 076°17'0 0.0
2017-Oct-26 08:30N 36°50' W 076°17'0 0.0
2017-Oct-26 08:00N 36°50' W 076°17'0 0.0
2017-Oct-26 07:30N 36°50' W 076°17'0 0.0
2017-Oct-26 07:00N 36°50' W 076°17'0 0.0
2017-Oct-26 06:30N 36°50' W 076°17'0 0.0
2017-Oct-26 06:00N 36°50' W 076°17'0 0.0
2017-Oct-26 05:30N 36°50' W 076°17'0 0.0
2017-Oct-26 05:00N 36°50' W 076°17'0 0.0
2017-Oct-26 04:30N 36°50' W 076°17'0 0.0
2017-Oct-26 03:58N 36°50' W 076°17'0 0.0
2017-Oct-26 03:29N 36°50' W 076°17'0 0.0
2017-Oct-26 02:58N 36°50' W 076°17'0 0.0
2017-Oct-26 02:28N 36°50' W 076°17'0 0.0
2017-Oct-26 01:58N 36°50' W 076°17'0 0.0
2017-Oct-26 01:29N 36°50' W 076°17'0 0.0
2017-Oct-26 00:58N 36°50' W 076°17'0 0.0
2017-Oct-26 00:27N 36°50' W 076°17'0 0.0
2017-Oct-25 23:59N 36°50' W 076°17'0 0.0
2017-Oct-25 23:29N 36°50' W 076°17'0 0.0
2017-Oct-25 23:00N 36°50' W 076°17'0 0.0
2017-Oct-25 22:30N 36°50' W 076°17'0 0.0
2017-Oct-25 21:59N 36°50' W 076°17'0 0.0
2017-Oct-25 21:29N 36°50' W 076°17'0 0.0
2017-Oct-25 20:58N 36°50' W 076°17'0 0.0
2017-Oct-25 20:30N 36°50' W 076°17'0 0.0
2017-Oct-25 19:57N 36°50' W 076°17'0 0.0
2017-Oct-25 19:30N 36°50' W 076°17'0 0.0
2017-Oct-25 18:59N 36°50' W 076°17'0 0.0
2017-Oct-25 18:30N 36°50' W 076°17'0 0.0
2017-Oct-25 18:00N 36°50' W 076°17'0 0.0
2017-Oct-25 17:30N 36°50' W 076°17'0 0.0
2017-Oct-25 17:00N 36°50' W 076°17'0 0.0
2017-Oct-25 16:30N 36°50' W 076°17'0 0.2
2017-Oct-25 16:00N 36°50' W 076°17'0 0.0
2017-Oct-25 15:30N 36°50' W 076°17'1 2.0
2017-Oct-25 14:59N 36°51' W 076°18'1 2.5
2017-Oct-25 14:25N 36°52' W 076°19'117 5.8
2017-Oct-24 18:08N 38°49' W 076°26'1 7.8
2017-Oct-24 18:00N 38°50' W 076°26'4 7.9
2017-Oct-24 17:30N 38°54' W 076°24'4 8.0
2017-Oct-24 17:00N 38°58' W 076°24'4 8.3
2017-Oct-24 16:30N 39°02' W 076°23'4 7.8
2017-Oct-24 16:00N 39°06' W 076°24'4 7.6
2017-Oct-24 15:30N 39°09' W 076°25'2 4.1
2017-Oct-24 15:00N 39°11' W 076°27'3 6.3
2017-Oct-24 14:30N 39°12' W 076°31'2 4.4
2017-Oct-24 14:00N 39°13' W 076°33'2 3.3
2017-Oct-24 13:30N 39°13' W 076°35'1 1.9
2017-Oct-24 13:00N 39°12' W 076°35'0 0.2
2017-Oct-24 12:30N 39°12' W 076°35'0 0.0
2017-Oct-24 12:00N 39°12' W 076°35'0 0.0
2017-Oct-24 11:30N 39°12' W 076°35'0 0.0
2017-Oct-24 11:00N 39°12' W 076°35'0 0.0
2017-Oct-24 10:30N 39°12' W 076°35'0 0.0
2017-Oct-24 10:00N 39°12' W 076°35'0 0.0
2017-Oct-24 09:30N 39°12' W 076°35'0 0.0
2017-Oct-24 09:00N 39°12' W 076°35'0 0.0
2017-Oct-24 08:30N 39°12' W 076°35'0 0.0
2017-Oct-24 08:00N 39°12' W 076°35'0 0.0
2017-Oct-24 07:30N 39°12' W 076°35'0 0.0
2017-Oct-24 07:00N 39°12' W 076°35'0 0.0
2017-Oct-24 06:30N 39°12' W 076°35'0 0.0
2017-Oct-24 06:00N 39°12' W 076°35'0 0.0
2017-Oct-24 05:30N 39°12' W 076°35'0 0.0
2017-Oct-24 05:00N 39°12' W 076°35'0 0.0
2017-Oct-24 04:30N 39°12' W 076°35'0 0.0
2017-Oct-24 04:00N 39°12' W 076°35'0 0.0
2017-Oct-24 03:30N 39°12' W 076°35'0 0.0
2017-Oct-24 03:00N 39°12' W 076°35'0 0.0
2017-Oct-24 02:30N 39°12' W 076°35'0 0.0
2017-Oct-24 02:00N 39°12' W 076°35'0 0.0
2017-Oct-24 01:30N 39°12' W 076°35'0 0.0
2017-Oct-24 01:00N 39°12' W 076°35'0 0.0
2017-Oct-24 00:30N 39°12' W 076°35'0 0.0
2017-Oct-24 00:00N 39°12' W 076°35'0 0.0
2017-Oct-23 23:30N 39°12' W 076°35'0 0.0
2017-Oct-23 23:00N 39°12' W 076°35'0 0.2
2017-Oct-23 22:30N 39°12' W 076°35'0 0.0
2017-Oct-23 22:00N 39°12' W 076°35'0 0.0
2017-Oct-23 21:30N 39°12' W 076°35'0 0.0
2017-Oct-23 21:00N 39°12' W 076°35'0 0.0
2017-Oct-23 20:30N 39°12' W 076°35'0 0.0
2017-Oct-23 20:00N 39°12' W 076°35'0 0.1
2017-Oct-23 19:30N 39°12' W 076°35'0 0.1
2017-Oct-23 19:00N 39°12' W 076°35'0 0.0
2017-Oct-23 18:30N 39°12' W 076°35'0 0.0
2017-Oct-23 18:00N 39°12' W 076°35'0 0.0
2017-Oct-23 17:30N 39°12' W 076°35'0 0.0
2017-Oct-23 17:00N 39°12' W 076°35'0 0.0
2017-Oct-23 16:30N 39°12' W 076°35'0 0.0
2017-Oct-23 16:00N 39°12' W 076°35'0 0.0
2017-Oct-23 15:30N 39°12' W 076°35'0 0.0
2017-Oct-23 15:00N 39°12' W 076°35'0 0.0
2017-Oct-23 14:30N 39°12' W 076°35'0 0.0
2017-Oct-23 14:00N 39°12' W 076°35'0 0.0
2017-Oct-23 13:30N 39°12' W 076°35'0 0.0
2017-Oct-23 13:00N 39°12' W 076°35'0 0.0
2017-Oct-23 12:30N 39°12' W 076°35'0 0.0
2017-Oct-23 12:00N 39°12' W 076°35'0 0.0
2017-Oct-23 11:31N 39°12' W 076°35'0 0.3
2017-Oct-23 11:00N 39°12' W 076°35'1 1.1
2017-Oct-23 10:30N 39°12' W 076°35'2 3.2
2017-Oct-23 10:00N 39°13' W 076°33'2 4.4
2017-Oct-23 09:30N 39°12' W 076°31'2 4.6
2017-Oct-23 09:00N 39°11' W 076°28'2 4.6
2017-Oct-23 08:30N 39°10' W 076°26'3 5.1
2017-Oct-23 07:59N 39°08' W 076°24'2 5.1
2017-Oct-23 07:30N 39°05' W 076°24'3 5.0
2017-Oct-23 07:00N 39°03' W 076°23'2 4.7
2017-Oct-23 06:30N 39°01' W 076°23'2 4.6
2017-Oct-23 06:00N 38°58' W 076°23'3 5.1
2017-Oct-23 05:30N 38°56' W 076°23'3 5.3
2017-Oct-23 05:01N 38°53' W 076°24'3 5.2
2017-Oct-23 04:30N 38°51' W 076°25'3 5.3
2017-Oct-23 04:00N 38°48' W 076°26'3 5.5
2017-Oct-23 03:30N 38°45' W 076°27'3 5.6
2017-Oct-23 03:00N 38°43' W 076°27'3 5.7
2017-Oct-23 02:30N 38°40' W 076°27'3 5.7
2017-Oct-23 02:00N 38°37' W 076°27'3 5.9
2017-Oct-23 01:30N 38°34' W 076°27'3 6.3
2017-Oct-23 01:00N 38°31' W 076°26'4 6.5
2017-Oct-23 00:27N 38°28' W 076°24'5 6.8
2017-Oct-22 23:42N 38°23' W 076°21'2 6.9
2017-Oct-22 23:28N 38°22' W 076°21'4 7.2
2017-Oct-22 22:56N 38°18' W 076°19'4 7.5
2017-Oct-22 22:23N 38°14' W 076°18'8 7.6
2017-Oct-22 21:23N 38°07' W 076°15'52 8.4
2017-Oct-22 15:12N 37°15' W 076°10'2 8.3
2017-Oct-22 15:00N 37°13' W 076°10'4 8.5
2017-Oct-22 14:30N 37°09' W 076°10'4 8.2
2017-Oct-22 14:00N 37°05' W 076°09'5 7.1
2017-Oct-22 13:19N 36°60' W 076°10'2 6.1
2017-Oct-22 13:01N 37°00' W 076°12'5 6.9
2017-Oct-22 12:16N 36°59' W 076°19'2 7.1
2017-Oct-22 12:01N 36°58' W 076°20'4 7.6
2017-Oct-22 11:30N 36°54' W 076°20'3 7.1
2017-Oct-22 11:00N 36°51' W 076°18'1 2.7
2017-Oct-22 10:30N 36°50' W 076°17'0 0.0
2017-Oct-22 10:00N 36°50' W 076°17'0 0.0
2017-Oct-22 09:30N 36°50' W 076°17'0 0.0
2017-Oct-22 09:00N 36°50' W 076°17'0 0.0
2017-Oct-22 08:30N 36°50' W 076°17'0 0.0
2017-Oct-22 08:00N 36°50' W 076°17'0 0.0
2017-Oct-22 07:30N 36°50' W 076°17'0 0.0
2017-Oct-22 07:00N 36°50' W 076°17'0 0.0
2017-Oct-22 06:30N 36°50' W 076°17'0 0.0
2017-Oct-22 06:00N 36°50' W 076°17'0 0.0
2017-Oct-22 05:30N 36°50' W 076°17'0 0.0
2017-Oct-22 05:00N 36°50' W 076°17'0 0.0
2017-Oct-22 04:30N 36°50' W 076°17'0 0.0
2017-Oct-22 04:00N 36°50' W 076°17'0 0.0
2017-Oct-22 03:30N 36°50' W 076°17'0 0.0
2017-Oct-22 03:00N 36°50' W 076°17'0 0.0
2017-Oct-22 02:30N 36°50' W 076°17'0 0.0
2017-Oct-22 02:00N 36°50' W 076°17'0 0.0
2017-Oct-22 01:30N 36°50' W 076°17'0 0.0
2017-Oct-22 01:00N 36°50' W 076°17'0 0.0
2017-Oct-22 00:30N 36°50' W 076°17'0 0.0
2017-Oct-22 00:01N 36°50' W 076°17'0 0.0
2017-Oct-21 23:30N 36°50' W 076°17'0 0.0
2017-Oct-21 23:00N 36°50' W 076°17'0 0.0
2017-Oct-21 22:30N 36°50' W 076°17'0 0.1
2017-Oct-21 22:00N 36°50' W 076°17'0 0.0
2017-Oct-21 21:30N 36°50' W 076°17'0 0.0
2017-Oct-21 21:01N 36°50' W 076°17'0 0.0
2017-Oct-21 20:30N 36°50' W 076°17'0 0.0
2017-Oct-21 19:59N 36°50' W 076°17'0 0.0
2017-Oct-21 18:46N 36°50' W 076°17'0 0.0
2017-Oct-21 18:30N 36°50' W 076°17'0 0.0
2017-Oct-21 18:00N 36°50' W 076°17'0 0.0
2017-Oct-21 17:30N 36°50' W 076°17'0 0.0
2017-Oct-21 17:00N 36°50' W 076°17'0 0.0
2017-Oct-21 16:30N 36°50' W 076°17'0 0.0
2017-Oct-21 16:00N 36°50' W 076°17'0 0.0
2017-Oct-21 15:30N 36°50' W 076°17'0 0.0
2017-Oct-21 15:00N 36°50' W 076°17'0 0.0
2017-Oct-21 14:30N 36°50' W 076°17'0 0.0
2017-Oct-21 13:30N 36°50' W 076°17'0 0.0
2017-Oct-21 13:00N 36°50' W 076°17'0 0.0
2017-Oct-21 12:30N 36°50' W 076°17'0 0.0
2017-Oct-21 12:00N 36°50' W 076°17'1 1.3
2017-Oct-21 11:30N 36°51' W 076°17'5 9.2
2017-Oct-21 11:00N 36°54' W 076°20'11 7.6
2017-Oct-21 09:31N 36°59' W 076°07'1 9.6
2017-Oct-21 09:27N 36°59' W 076°07'4 9.1
2017-Oct-21 09:00N 36°57' W 076°02'4 8.9
2017-Oct-21 08:30N 36°57' W 075°56'  
Track history (hours):
 
Tides and Currents Weather Stations Pressure Air Temp Water Temp Dewpoint Dewpoint Depression Visibility Wind Speed Wind Dir Waves Ship Positions

Ocean Tower

Owner: Tug Ocean Tower, Tampa, FL. More information available from US FCC via Universal Licensing System and Coast Guard Vessel Documentation Center.

Last reported at 2017-Oct-31 00:32 UTC. Time now 2017-Nov-21 10:18 UTC.
Position N 34°12' W 077°57'.
Warning: this ship's position is 21 days out of date.

Length 34 m; draft 4.1 m.

Type: Tow > 200 m length. MMSI: 367356580.

Date/timePositionNaut miles runAvg speedWind from/ knotsBaromVisibWave heightAir tempDewpointWater temp
2017-Oct-31 00:32N 34°12' W 077°57'1 8.0
2017-Oct-31 00:21N 34°13' W 077°57'0 0.1
2017-Oct-31 00:00N 34°13' W 077°57'0 0.0
2017-Oct-30 23:30N 34°13' W 077°57'0 0.0
2017-Oct-30 23:00N 34°13' W 077°57'0 0.0
2017-Oct-30 22:30N 34°13' W 077°57'0 0.0
2017-Oct-30 22:00N 34°13' W 077°57'0 0.0
2017-Oct-30 21:27N 34°13' W 077°57'0 0.0
2017-Oct-30 21:00N 34°13' W 077°57'0 0.0
2017-Oct-30 20:29N 34°13' W 077°57'0 0.0
2017-Oct-30 20:00N 34°13' W 077°57'0 0.0
2017-Oct-30 19:30N 34°13' W 077°57'0 0.0
2017-Oct-30 19:00N 34°13' W 077°57'0 0.3
2017-Oct-30 18:30N 34°13' W 077°57'  
2017-Oct-27 16:41N 34°32' W 076°46'210.4
2017-Oct-27 16:30N 34°33' W 076°45'510.3
2017-Oct-27 16:00N 34°38' W 076°42'4 8.6
2017-Oct-27 15:30N 34°42' W 076°41'1 2.5
2017-Oct-27 15:00N 34°43' W 076°42'2 3.3
2017-Oct-27 14:30N 34°42' W 076°40'2 4.4
2017-Oct-27 14:00N 34°40' W 076°41'0 0.2
2017-Oct-27 13:30N 34°40' W 076°41'1 1.3
2017-Oct-27 13:01N 34°39' W 076°41'3 5.5
2017-Oct-27 12:30N 34°36' W 076°41'4 8.9
2017-Oct-27 12:00N 34°32' W 076°39'148 7.2
2017-Oct-26 15:27N 36°57' W 076°02'15 7.4
2017-Oct-26 13:26N 36°53' W 076°20'4 8.1
2017-Oct-26 13:00N 36°50' W 076°17'0 0.7
2017-Oct-26 12:30N 36°50' W 076°17'0 0.0
2017-Oct-26 12:00N 36°50' W 076°17'0 0.0
2017-Oct-26 11:30N 36°50' W 076°17'0 0.0
2017-Oct-26 11:00N 36°50' W 076°17'0 0.0
2017-Oct-26 10:31N 36°50' W 076°17'0 0.0
2017-Oct-26 10:00N 36°50' W 076°17'0 0.0
2017-Oct-26 09:30N 36°50' W 076°17'0 0.0
2017-Oct-26 09:00N 36°50' W 076°17'0 0.0
2017-Oct-26 08:30N 36°50' W 076°17'0 0.0
2017-Oct-26 08:00N 36°50' W 076°17'0 0.0
2017-Oct-26 07:30N 36°50' W 076°17'0 0.0
2017-Oct-26 07:00N 36°50' W 076°17'0 0.0
2017-Oct-26 06:30N 36°50' W 076°17'0 0.0
2017-Oct-26 06:00N 36°50' W 076°17'0 0.0
2017-Oct-26 05:30N 36°50' W 076°17'0 0.0
2017-Oct-26 05:00N 36°50' W 076°17'0 0.0
2017-Oct-26 04:30N 36°50' W 076°17'0 0.0
2017-Oct-26 03:58N 36°50' W 076°17'0 0.0
2017-Oct-26 03:29N 36°50' W 076°17'0 0.0
2017-Oct-26 02:58N 36°50' W 076°17'0 0.0
2017-Oct-26 02:28N 36°50' W 076°17'0 0.0
2017-Oct-26 01:58N 36°50' W 076°17'0 0.0
2017-Oct-26 01:29N 36°50' W 076°17'0 0.0
2017-Oct-26 00:58N 36°50' W 076°17'0 0.0
2017-Oct-26 00:27N 36°50' W 076°17'0 0.0
2017-Oct-25 23:59N 36°50' W 076°17'0 0.0
2017-Oct-25 23:29N 36°50' W 076°17'0 0.0
2017-Oct-25 23:00N 36°50' W 076°17'0 0.0
2017-Oct-25 22:30N 36°50' W 076°17'0 0.0
2017-Oct-25 21:59N 36°50' W 076°17'0 0.0
2017-Oct-25 21:29N 36°50' W 076°17'0 0.0
2017-Oct-25 20:58N 36°50' W 076°17'0 0.0
2017-Oct-25 20:30N 36°50' W 076°17'0 0.0
2017-Oct-25 19:57N 36°50' W 076°17'0 0.0
2017-Oct-25 19:30N 36°50' W 076°17'0 0.0
2017-Oct-25 18:59N 36°50' W 076°17'0 0.0
2017-Oct-25 18:30N 36°50' W 076°17'0 0.0
2017-Oct-25 18:00N 36°50' W 076°17'0 0.0
2017-Oct-25 17:30N 36°50' W 076°17'0 0.0
2017-Oct-25 17:00N 36°50' W 076°17'0 0.0
2017-Oct-25 16:30N 36°50' W 076°17'0 0.2
2017-Oct-25 16:00N 36°50' W 076°17'0 0.0
2017-Oct-25 15:30N 36°50' W 076°17'1 2.0
2017-Oct-25 14:59N 36°51' W 076°18'1 2.5
2017-Oct-25 14:25N 36°52' W 076°19'117 5.8
2017-Oct-24 18:08N 38°49' W 076°26'1 7.8
2017-Oct-24 18:00N 38°50' W 076°26'4 7.9
2017-Oct-24 17:30N 38°54' W 076°24'4 8.0
2017-Oct-24 17:00N 38°58' W 076°24'4 8.3
2017-Oct-24 16:30N 39°02' W 076°23'4 7.8
2017-Oct-24 16:00N 39°06' W 076°24'4 7.6
2017-Oct-24 15:30N 39°09' W 076°25'2 4.1
2017-Oct-24 15:00N 39°11' W 076°27'3 6.3
2017-Oct-24 14:30N 39°12' W 076°31'2 4.4
2017-Oct-24 14:00N 39°13' W 076°33'2 3.3
2017-Oct-24 13:30N 39°13' W 076°35'1 1.9
2017-Oct-24 13:00N 39°12' W 076°35'0 0.2
2017-Oct-24 12:30N 39°12' W 076°35'0 0.0
2017-Oct-24 12:00N 39°12' W 076°35'0 0.0
2017-Oct-24 11:30N 39°12' W 076°35'0 0.0
2017-Oct-24 11:00N 39°12' W 076°35'0 0.0
2017-Oct-24 10:30N 39°12' W 076°35'0 0.0
2017-Oct-24 10:00N 39°12' W 076°35'0 0.0
2017-Oct-24 09:30N 39°12' W 076°35'0 0.0
2017-Oct-24 09:00N 39°12' W 076°35'0 0.0
2017-Oct-24 08:30N 39°12' W 076°35'0 0.0
2017-Oct-24 08:00N 39°12' W 076°35'0 0.0
2017-Oct-24 07:30N 39°12' W 076°35'0 0.0
2017-Oct-24 07:00N 39°12' W 076°35'0 0.0
2017-Oct-24 06:30N 39°12' W 076°35'0 0.0
2017-Oct-24 06:00N 39°12' W 076°35'0 0.0
2017-Oct-24 05:30N 39°12' W 076°35'0 0.0
2017-Oct-24 05:00N 39°12' W 076°35'0 0.0
2017-Oct-24 04:30N 39°12' W 076°35'0 0.0
2017-Oct-24 04:00N 39°12' W 076°35'0 0.0
2017-Oct-24 03:30N 39°12' W 076°35'0 0.0
2017-Oct-24 03:00N 39°12' W 076°35'0 0.0
2017-Oct-24 02:30N 39°12' W 076°35'0 0.0
2017-Oct-24 02:00N 39°12' W 076°35'0 0.0
2017-Oct-24 01:30N 39°12' W 076°35'0 0.0
2017-Oct-24 01:00N 39°12' W 076°35'0 0.0
2017-Oct-24 00:30N 39°12' W 076°35'0 0.0
2017-Oct-24 00:00N 39°12' W 076°35'0 0.0
2017-Oct-23 23:30N 39°12' W 076°35'0 0.0
2017-Oct-23 23:00N 39°12' W 076°35'0 0.2
2017-Oct-23 22:30N 39°12' W 076°35'0 0.0
2017-Oct-23 22:00N 39°12' W 076°35'0 0.0
2017-Oct-23 21:30N 39°12' W 076°35'0 0.0
2017-Oct-23 21:00N 39°12' W 076°35'0 0.0
2017-Oct-23 20:30N 39°12' W 076°35'0 0.0
2017-Oct-23 20:00N 39°12' W 076°35'0 0.1
2017-Oct-23 19:30N 39°12' W 076°35'0 0.1
2017-Oct-23 19:00N 39°12' W 076°35'0 0.0
2017-Oct-23 18:30N 39°12' W 076°35'0 0.0
2017-Oct-23 18:00N 39°12' W 076°35'0 0.0
2017-Oct-23 17:30N 39°12' W 076°35'0 0.0
2017-Oct-23 17:00N 39°12' W 076°35'0 0.0
2017-Oct-23 16:30N 39°12' W 076°35'0 0.0
2017-Oct-23 16:00N 39°12' W 076°35'0 0.0
2017-Oct-23 15:30N 39°12' W 076°35'0 0.0
2017-Oct-23 15:00N 39°12' W 076°35'0 0.0
2017-Oct-23 14:30N 39°12' W 076°35'0 0.0
2017-Oct-23 14:00N 39°12' W 076°35'0 0.0
2017-Oct-23 13:30N 39°12' W 076°35'0 0.0
2017-Oct-23 13:00N 39°12' W 076°35'0 0.0
2017-Oct-23 12:30N 39°12' W 076°35'0 0.0
2017-Oct-23 12:00N 39°12' W 076°35'0 0.0
2017-Oct-23 11:31N 39°12' W 076°35'0 0.3
2017-Oct-23 11:00N 39°12' W 076°35'1 1.1
2017-Oct-23 10:30N 39°12' W 076°35'2 3.2
2017-Oct-23 10:00N 39°13' W 076°33'2 4.4
2017-Oct-23 09:30N 39°12' W 076°31'2 4.6
2017-Oct-23 09:00N 39°11' W 076°28'2 4.6
2017-Oct-23 08:30N 39°10' W 076°26'3 5.1
2017-Oct-23 07:59N 39°08' W 076°24'2 5.1
2017-Oct-23 07:30N 39°05' W 076°24'3 5.0
2017-Oct-23 07:00N 39°03' W 076°23'2 4.7
2017-Oct-23 06:30N 39°01' W 076°23'2 4.6
2017-Oct-23 06:00N 38°58' W 076°23'3 5.1
2017-Oct-23 05:30N 38°56' W 076°23'3 5.3
2017-Oct-23 05:01N 38°53' W 076°24'3 5.2
2017-Oct-23 04:30N 38°51' W 076°25'3 5.3
2017-Oct-23 04:00N 38°48' W 076°26'3 5.5
2017-Oct-23 03:30N 38°45' W 076°27'3 5.6
2017-Oct-23 03:00N 38°43' W 076°27'3 5.7
2017-Oct-23 02:30N 38°40' W 076°27'3 5.7
2017-Oct-23 02:00N 38°37' W 076°27'3 5.9
2017-Oct-23 01:30N 38°34' W 076°27'3 6.3
2017-Oct-23 01:00N 38°31' W 076°26'4 6.5
2017-Oct-23 00:27N 38°28' W 076°24'5 6.8
2017-Oct-22 23:42N 38°23' W 076°21'2 6.9
2017-Oct-22 23:28N 38°22' W 076°21'4 7.2
2017-Oct-22 22:56N 38°18' W 076°19'4 7.5
2017-Oct-22 22:23N 38°14' W 076°18'8 7.6
2017-Oct-22 21:23N 38°07' W 076°15'52 8.4
2017-Oct-22 15:12N 37°15' W 076°10'2 8.3
2017-Oct-22 15:00N 37°13' W 076°10'4 8.5
2017-Oct-22 14:30N 37°09' W 076°10'4 8.2
2017-Oct-22 14:00N 37°05' W 076°09'5 7.1
2017-Oct-22 13:19N 36°60' W 076°10'2 6.1
2017-Oct-22 13:01N 37°00' W 076°12'5 6.9
2017-Oct-22 12:16N 36°59' W 076°19'2 7.1
2017-Oct-22 12:01N 36°58' W 076°20'4 7.6
2017-Oct-22 11:30N 36°54' W 076°20'3 7.1
2017-Oct-22 11:00N 36°51' W 076°18'1 2.7
2017-Oct-22 10:30N 36°50' W 076°17'0 0.0
2017-Oct-22 10:00N 36°50' W 076°17'0 0.0
2017-Oct-22 09:30N 36°50' W 076°17'0 0.0
2017-Oct-22 09:00N 36°50' W 076°17'0 0.0
2017-Oct-22 08:30N 36°50' W 076°17'0 0.0
2017-Oct-22 08:00N 36°50' W 076°17'0 0.0
2017-Oct-22 07:30N 36°50' W 076°17'0 0.0
2017-Oct-22 07:00N 36°50' W 076°17'0 0.0
2017-Oct-22 06:30N 36°50' W 076°17'0 0.0
2017-Oct-22 06:00N 36°50' W 076°17'0 0.0
2017-Oct-22 05:30N 36°50' W 076°17'0 0.0
2017-Oct-22 05:00N 36°50' W 076°17'0 0.0
2017-Oct-22 04:30N 36°50' W 076°17'0 0.0
2017-Oct-22 04:00N 36°50' W 076°17'0 0.0
2017-Oct-22 03:30N 36°50' W 076°17'0 0.0
2017-Oct-22 03:00N 36°50' W 076°17'0 0.0
2017-Oct-22 02:30N 36°50' W 076°17'0 0.0
2017-Oct-22 02:00N 36°50' W 076°17'0 0.0
2017-Oct-22 01:30N 36°50' W 076°17'0 0.0
2017-Oct-22 01:00N 36°50' W 076°17'0 0.0
2017-Oct-22 00:30N 36°50' W 076°17'0 0.0
2017-Oct-22 00:01N 36°50' W 076°17'0 0.0
2017-Oct-21 23:30N 36°50' W 076°17'0 0.0
2017-Oct-21 23:00N 36°50' W 076°17'0 0.0
2017-Oct-21 22:30N 36°50' W 076°17'0 0.1
2017-Oct-21 22:00N 36°50' W 076°17'0 0.0
2017-Oct-21 21:30N 36°50' W 076°17'0 0.0
2017-Oct-21 21:01N 36°50' W 076°17'0 0.0
2017-Oct-21 20:30N 36°50' W 076°17'0 0.0
2017-Oct-21 19:59N 36°50' W 076°17'0 0.0
2017-Oct-21 18:46N 36°50' W 076°17'0 0.0
2017-Oct-21 18:30N 36°50' W 076°17'0 0.0
2017-Oct-21 18:00N 36°50' W 076°17'0 0.0
2017-Oct-21 17:30N 36°50' W 076°17'0 0.0
2017-Oct-21 17:00N 36°50' W 076°17'0 0.0
2017-Oct-21 16:30N 36°50' W 076°17'0 0.0
2017-Oct-21 16:00N 36°50' W 076°17'0 0.0
2017-Oct-21 15:30N 36°50' W 076°17'0 0.0
2017-Oct-21 15:00N 36°50' W 076°17'0 0.0
2017-Oct-21 14:30N 36°50' W 076°17'0 0.0
2017-Oct-21 13:30N 36°50' W 076°17'0 0.0
2017-Oct-21 13:00N 36°50' W 076°17'0 0.0
2017-Oct-21 12:30N 36°50' W 076°17'0 0.0
2017-Oct-21 12:00N 36°50' W 076°17'1 1.3
2017-Oct-21 11:30N 36°51' W 076°17'5 9.2
2017-Oct-21 11:00N 36°54' W 076°20'11 7.6
2017-Oct-21 09:31N 36°59' W 076°07'1 9.6
2017-Oct-21 09:27N 36°59' W 076°07'4 9.1
2017-Oct-21 09:00N 36°57' W 076°02'4 8.9
2017-Oct-21 08:30N 36°57' W 075°56'  

Dump ship's entire track history